createdAt,value
2017-08-18T00:00:13.376Z,53.53
2017-08-18T00:02:42.679Z,20.70
2017-08-18T00:05:12.194Z,35.63
2017-08-18T00:07:41.643Z,24.37
2017-08-18T00:10:11.548Z,12.70
2017-08-18T00:12:41.981Z,21.60
2017-08-18T00:15:12.821Z,12.60
2017-08-18T00:17:42.765Z,14.80
2017-08-18T00:20:11.977Z,20.40
2017-08-18T00:22:48.976Z,25.57
2017-08-18T00:25:23.664Z,13.60
2017-08-18T00:27:53.107Z,22.30
2017-08-18T00:30:27.365Z,20.00
2017-08-18T00:32:58.417Z,12.80
2017-08-18T00:35:30.760Z,13.97
2017-08-18T00:38:03.476Z,15.80
2017-08-18T00:40:35.802Z,28.83
2017-08-18T00:43:05.027Z,17.73
2017-08-18T00:45:34.222Z,31.90
2017-08-18T00:48:06.835Z,23.73
2017-08-18T00:50:36.017Z,14.47
2017-08-18T00:53:06.674Z,28.40
2017-08-18T00:55:35.978Z,21.70
2017-08-18T00:58:05.397Z,18.73
2017-08-18T01:00:34.699Z,13.40
2017-08-18T01:03:04.236Z,18.73
2017-08-18T01:05:33.295Z,15.97
2017-08-18T01:08:02.483Z,16.60
2017-08-18T01:10:31.508Z,17.60
2017-08-18T01:13:01.216Z,16.10
2017-08-18T01:15:30.255Z,15.70
2017-08-18T01:18:29.841Z,14.87
2017-08-18T01:20:59.188Z,18.33
2017-08-18T01:23:28.230Z,27.93
2017-08-18T01:26:03.822Z,18.13
2017-08-18T01:28:33.046Z,15.03
2017-08-18T01:31:02.637Z,17.10
2017-08-18T01:33:31.846Z,17.03
2017-08-18T01:36:18.370Z,15.57
2017-08-18T01:38:47.506Z,15.23
2017-08-18T01:41:16.671Z,13.67
2017-08-18T01:43:45.727Z,16.50
2017-08-18T01:46:15.268Z,17.90
2017-08-18T01:48:44.444Z,17.83
2017-08-18T01:51:13.545Z,16.10
2017-08-18T01:53:42.960Z,19.83
2017-08-18T01:56:12.374Z,15.33
2017-08-18T01:58:41.498Z,15.33
2017-08-18T02:01:11.213Z,18.13
2017-08-18T02:03:41.397Z,17.03
2017-08-18T02:06:12.154Z,21.80
2017-08-18T02:08:41.847Z,18.20
2017-08-18T02:11:10.951Z,14.57
2017-08-18T02:13:40.173Z,16.43
2017-08-18T02:16:09.964Z,15.63
2017-08-18T02:18:39.027Z,17.80
2017-08-18T02:21:08.119Z,17.67
2017-08-18T02:23:37.213Z,27.10
2017-08-18T02:26:07.598Z,14.90
2017-08-18T02:28:36.872Z,19.30
2017-08-18T02:31:05.848Z,14.67
2017-08-18T02:33:35.003Z,15.20
2017-08-18T02:36:04.254Z,22.73
2017-08-18T02:38:33.709Z,24.60
2017-08-18T02:41:02.777Z,21.73
2017-08-18T02:43:31.863Z,26.60
2017-08-18T02:46:00.928Z,26.97
2017-08-18T02:48:29.925Z,18.87
2017-08-18T02:50:59.470Z,16.37
2017-08-18T02:53:28.443Z,23.90
2017-08-18T02:55:57.553Z,18.83
2017-08-18T02:58:26.559Z,20.73
2017-08-18T03:00:55.672Z,23.47
2017-08-18T03:03:24.674Z,22.10
2017-08-18T03:05:53.677Z,26.80
2017-08-18T03:08:22.938Z,25.03
2017-08-18T03:10:51.970Z,27.03
2017-08-18T03:13:20.968Z,21.37
2017-08-18T03:15:49.960Z,21.40
2017-08-18T03:18:19.049Z,18.90
2017-08-18T03:20:48.404Z,24.60
2017-08-18T03:23:17.663Z,24.20
2017-08-18T03:25:46.848Z,15.43
2017-08-18T03:28:16.451Z,23.83
2017-08-18T03:30:45.678Z,22.03
2017-08-18T03:33:14.893Z,35.07
2017-08-18T03:35:44.272Z,22.40
2017-08-18T03:38:13.481Z,25.53
2017-08-18T03:40:42.444Z,22.30
2017-08-18T03:43:11.528Z,14.87
2017-08-18T03:45:40.627Z,19.77
2017-08-18T03:48:09.590Z,22.00
2017-08-18T03:50:38.633Z,37.77
2017-08-18T03:53:07.667Z,19.77
2017-08-18T03:55:36.696Z,18.50
2017-08-18T03:58:05.725Z,24.33
2017-08-18T04:00:35.294Z,20.00
2017-08-18T04:03:04.266Z,25.50
2017-08-18T04:05:33.293Z,44.80
2017-08-18T04:08:02.330Z,23.43
2017-08-18T04:10:31.321Z,27.77
2017-08-18T04:13:00.840Z,24.23
2017-08-18T04:15:30.063Z,25.33
2017-08-18T04:17:59.075Z,21.63
2017-08-18T04:20:28.155Z,23.63
2017-08-18T04:22:57.905Z,19.83
2017-08-18T04:25:27.021Z,21.17
2017-08-18T04:27:56.079Z,18.00
2017-08-18T04:30:25.031Z,24.53
2017-08-18T04:32:54.049Z,22.27
2017-08-18T04:35:23.123Z,29.77
2017-08-18T04:37:52.139Z,19.40
2017-08-18T04:40:21.216Z,22.73
2017-08-18T04:42:51.387Z,26.23
2017-08-18T04:45:20.537Z,25.57
2017-08-18T04:47:50.437Z,21.97
2017-08-18T04:50:20.282Z,24.07
2017-08-18T04:52:49.397Z,20.83
2017-08-18T04:55:18.600Z,22.47
2017-08-18T04:57:47.602Z,19.40
2017-08-18T05:00:16.759Z,25.63
2017-08-18T05:02:45.717Z,19.67
2017-08-18T05:05:14.792Z,19.77
2017-08-18T05:07:43.827Z,30.67
2017-08-18T05:10:12.856Z,22.93
2017-08-18T05:12:41.862Z,29.80
2017-08-18T05:15:10.942Z,38.40
2017-08-18T05:17:40.212Z,37.40
2017-08-18T05:20:10.321Z,22.07
2017-08-18T05:22:39.630Z,29.93
2017-08-18T05:25:08.701Z,48.80
2017-08-18T05:27:37.832Z,19.97
2017-08-18T05:30:06.848Z,25.70
2017-08-18T05:32:35.793Z,23.23
2017-08-18T05:35:04.763Z,24.50
2017-08-18T05:37:33.768Z,18.53
2017-08-18T05:40:02.798Z,22.13
2017-08-18T05:42:31.843Z,28.07
2017-08-18T05:45:00.850Z,19.70
2017-08-18T05:47:29.824Z,26.80
2017-08-18T05:49:58.952Z,19.77
2017-08-18T05:52:28.092Z,22.17
2017-08-18T05:54:57.170Z,18.87
2017-08-18T05:57:26.736Z,21.97
2017-08-18T05:59:56.087Z,20.83
2017-08-18T06:02:25.105Z,16.17
2017-08-18T06:04:54.199Z,19.80
2017-08-18T06:07:23.279Z,17.63
2017-08-18T06:09:52.338Z,16.77
2017-08-18T06:12:21.365Z,21.97
2017-08-18T06:14:50.722Z,22.63
2017-08-18T06:17:19.813Z,17.80
2017-08-18T06:19:48.913Z,22.50
2017-08-18T06:22:18.267Z,26.57
2017-08-18T06:24:47.559Z,24.83
2017-08-18T06:28:19.664Z,19.53
2017-08-18T06:30:49.092Z,44.47
2017-08-18T06:33:18.358Z,28.30
2017-08-18T06:35:47.724Z,25.13
2017-08-18T06:38:16.973Z,25.47
2017-08-18T06:40:46.395Z,19.47
2017-08-18T06:43:15.737Z,34.00
2017-08-18T06:45:44.916Z,21.50
2017-08-18T06:48:14.095Z,20.00
2017-08-18T06:50:43.517Z,28.97
2017-08-18T06:53:12.656Z,23.70
2017-08-18T06:55:41.652Z,37.20
2017-08-18T06:58:10.786Z,24.53
2017-08-18T07:00:40.187Z,34.63
2017-08-18T07:03:09.674Z,25.53
2017-08-18T07:05:39.747Z,20.73
2017-08-18T07:08:09.191Z,18.90
2017-08-18T07:10:39.283Z,22.90
2017-08-18T07:13:08.899Z,28.53
2017-08-18T07:15:38.210Z,20.27
2017-08-18T07:18:07.653Z,26.57
2017-08-18T07:20:36.722Z,22.30
2017-08-18T07:23:06.150Z,26.40
2017-08-18T07:25:35.476Z,27.10
2017-08-18T07:28:05.195Z,23.13
2017-08-18T07:30:34.341Z,23.80
2017-08-18T07:33:03.523Z,30.37
2017-08-18T07:35:32.922Z,40.33
2017-08-18T07:38:02.098Z,44.37
2017-08-18T07:40:31.604Z,30.20
2017-08-18T07:43:00.801Z,34.60
2017-08-18T07:45:30.287Z,37.53
2017-08-18T07:47:59.874Z,29.90
2017-08-18T07:50:29.140Z,34.67
2017-08-18T07:52:58.921Z,27.03
2017-08-18T07:55:29.284Z,30.80
2017-08-18T07:57:59.999Z,38.80
2017-08-18T08:00:29.328Z,41.53
2017-08-18T08:02:58.542Z,28.73
2017-08-18T08:05:27.833Z,27.03
2017-08-18T08:07:57.672Z,27.77
2017-08-18T08:10:27.115Z,33.13
2017-08-18T08:12:56.702Z,40.30
2017-08-18T08:15:26.561Z,28.20
2017-08-18T08:17:56.011Z,24.83
2017-08-18T08:20:25.599Z,66.43
2017-08-18T08:22:55.456Z,35.53
2017-08-18T08:25:24.717Z,19.70
2017-08-18T08:27:53.856Z,24.17
2017-08-18T08:30:23.438Z,35.87
2017-08-18T08:32:52.551Z,33.20
2017-08-18T08:35:34.112Z,25.40
2017-08-18T08:38:03.917Z,35.97
2017-08-18T08:40:33.074Z,36.40
2017-08-18T08:43:02.070Z,37.40
2017-08-18T08:45:32.011Z,44.87
2017-08-18T08:48:01.208Z,35.23
2017-08-18T08:50:30.291Z,32.70
2017-08-18T08:53:07.249Z,36.30
2017-08-18T08:55:36.374Z,30.10
2017-08-18T08:58:05.468Z,32.73
2017-08-18T09:00:35.559Z,35.77
2017-08-18T09:03:05.726Z,35.13
2017-08-18T09:05:35.006Z,30.93
2017-08-18T09:08:04.154Z,39.87
2017-08-18T09:10:33.307Z,46.47
2017-08-18T09:13:02.629Z,43.03
2017-08-18T09:15:31.799Z,44.00
2017-08-18T09:18:01.621Z,48.00
2017-08-18T09:20:30.738Z,49.93
2017-08-18T09:22:59.814Z,43.80
2017-08-18T09:25:28.879Z,46.73
2017-08-18T09:27:58.254Z,42.87
2017-08-18T09:30:28.005Z,38.00
2017-08-18T09:32:57.535Z,38.90
2017-08-18T09:36:29.238Z,40.73
2017-08-18T09:38:58.394Z,43.23
2017-08-18T09:41:27.484Z,36.13
2017-08-18T09:43:56.514Z,37.57
2017-08-18T09:46:25.669Z,30.77
2017-08-18T09:49:04.789Z,30.30
2017-08-18T09:52:47.228Z,23.90
2017-08-18T09:55:27.617Z,23.80
2017-08-18T09:59:08.384Z,22.70
2017-08-18T10:01:37.649Z,39.00
2017-08-18T10:04:07.156Z,19.50
2017-08-18T10:06:37.419Z,16.33
2017-08-18T10:09:06.401Z,16.43
2017-08-18T10:11:37.014Z,19.47
2017-08-18T10:14:06.235Z,17.17
2017-08-18T10:16:35.449Z,13.63
2017-08-18T10:19:04.820Z,18.00
2017-08-18T10:21:34.224Z,19.60
2017-08-18T10:24:03.704Z,15.60
2017-08-18T10:26:33.640Z,16.50
2017-08-18T10:29:03.500Z,16.30
2017-08-18T10:31:32.698Z,16.43
2017-08-18T10:34:02.114Z,17.00
2017-08-18T10:36:31.501Z,16.17
2017-08-18T10:39:00.868Z,17.20
2017-08-18T10:41:30.217Z,15.63
2017-08-18T10:43:59.757Z,19.20
2017-08-18T10:46:28.856Z,15.30
2017-08-18T10:48:58.209Z,14.80
2017-08-18T10:51:29.101Z,13.07
2017-08-18T10:53:58.941Z,14.07
2017-08-18T10:56:28.197Z,13.10
2017-08-18T10:58:58.467Z,13.10
2017-08-18T11:01:27.797Z,23.03
2017-08-18T11:03:57.049Z,16.60
2017-08-18T11:06:26.512Z,13.70
2017-08-18T11:08:55.592Z,41.03
2017-08-18T11:11:25.269Z,14.30
2017-08-18T11:13:54.409Z,17.13
2017-08-18T11:16:23.676Z,12.77
2017-08-18T11:18:52.922Z,12.40
2017-08-18T11:21:22.175Z,16.60
2017-08-18T11:23:51.421Z,12.73
2017-08-18T11:26:20.974Z,13.30
2017-08-18T11:28:50.226Z,16.53
2017-08-18T11:31:19.982Z,12.33
2017-08-18T11:33:49.324Z,16.10
2017-08-18T11:36:19.053Z,13.00
2017-08-18T11:38:48.270Z,14.33
2017-08-18T11:41:20.804Z,20.17
2017-08-18T11:43:50.298Z,14.17
2017-08-18T11:46:23.428Z,14.30
2017-08-18T11:49:02.096Z,16.10
2017-08-18T11:51:31.390Z,13.40
2017-08-18T11:54:01.522Z,17.00
2017-08-18T11:56:32.648Z,20.10
2017-08-18T11:59:03.185Z,17.03
2017-08-18T12:01:37.114Z,15.60
2017-08-18T12:04:07.940Z,20.63
2017-08-18T12:06:42.112Z,17.50
2017-08-18T12:09:11.398Z,27.07
2017-08-18T12:11:40.523Z,33.33
2017-08-18T12:14:09.785Z,22.90
2017-08-18T12:16:39.616Z,30.93
2017-08-18T12:19:08.707Z,22.67
2017-08-18T12:21:38.103Z,33.63
2017-08-18T12:24:07.390Z,42.53
2017-08-18T12:26:36.941Z,31.27
2017-08-18T12:30:09.467Z,31.33
2017-08-18T12:32:38.764Z,31.20
2017-08-18T12:35:07.923Z,29.63
2017-08-18T12:37:37.305Z,23.30
2017-08-18T12:40:06.835Z,40.23
2017-08-18T12:42:39.412Z,20.13
2017-08-18T12:45:12.217Z,18.33
2017-08-18T12:47:41.982Z,31.43
2017-08-18T12:50:11.299Z,17.70
2017-08-18T12:52:43.115Z,16.50
2017-08-18T12:55:18.052Z,26.50
2017-08-18T12:57:47.366Z,27.07
2017-08-18T13:00:16.834Z,13.30
2017-08-18T13:02:46.273Z,19.70
2017-08-18T13:05:15.463Z,21.90
2017-08-18T13:07:44.630Z,14.20
2017-08-18T13:10:14.126Z,48.73
2017-08-18T13:12:43.228Z,16.00
2017-08-18T13:15:12.336Z,19.40
2017-08-18T13:17:41.666Z,18.50
2017-08-18T13:20:10.798Z,18.17
2017-08-18T13:22:40.304Z,17.20
2017-08-18T13:25:09.937Z,23.30
2017-08-18T13:27:39.823Z,24.53
2017-08-18T13:30:09.465Z,16.47
2017-08-18T13:32:39.121Z,14.47
2017-08-18T13:35:08.161Z,41.50
2017-08-18T13:37:37.258Z,17.60
2017-08-18T13:40:06.417Z,17.83
2017-08-18T13:42:36.392Z,17.63
2017-08-18T13:45:05.555Z,27.97
2017-08-18T13:47:34.645Z,18.83
2017-08-18T13:50:03.725Z,22.60
2017-08-18T13:52:33.644Z,32.10
2017-08-18T13:55:03.508Z,22.57
2017-08-18T13:57:40.541Z,17.10
2017-08-18T14:00:09.899Z,14.73
2017-08-18T14:02:40.136Z,13.67
2017-08-18T14:05:09.858Z,18.87
2017-08-18T14:07:39.227Z,25.37
2017-08-18T14:10:08.510Z,29.90
2017-08-18T14:12:37.823Z,21.70
2017-08-18T14:15:07.177Z,35.77
2017-08-18T14:17:36.429Z,18.07
2017-08-18T14:20:06.331Z,16.83
2017-08-18T14:22:35.496Z,26.47
2017-08-18T14:25:08.954Z,31.40
2017-08-18T14:27:47.235Z,21.40
2017-08-18T14:30:16.386Z,24.37
2017-08-18T14:32:46.339Z,25.47
2017-08-18T14:35:17.394Z,27.23
2017-08-18T14:37:46.787Z,14.70
2017-08-18T14:40:16.326Z,46.60
2017-08-18T14:42:46.013Z,16.13
2017-08-18T14:45:15.548Z,25.20
2017-08-18T14:47:45.157Z,33.27
2017-08-18T14:50:17.314Z,43.97
2017-08-18T14:52:47.195Z,15.40
2017-08-18T14:55:16.639Z,18.53
2017-08-18T14:57:45.993Z,22.20
2017-08-18T15:00:15.493Z,34.13
2017-08-18T15:02:44.873Z,21.10
2017-08-18T15:05:14.339Z,14.53
2017-08-18T15:07:43.557Z,17.33
2017-08-18T15:10:13.057Z,19.57
2017-08-18T15:12:42.229Z,20.40
2017-08-18T15:15:51.455Z,14.73
2017-08-18T15:18:22.130Z,17.43
2017-08-18T15:20:52.794Z,16.90
2017-08-18T15:23:22.392Z,16.60
2017-08-18T15:25:55.686Z,13.87
2017-08-18T15:28:25.226Z,21.60
2017-08-18T15:31:03.605Z,13.77
2017-08-18T15:33:34.855Z,16.23
2017-08-18T15:36:04.174Z,21.43
2017-08-18T15:38:33.798Z,12.53
2017-08-18T15:41:04.107Z,17.50
2017-08-18T15:43:33.725Z,23.10
2017-08-18T15:46:02.888Z,12.20
2017-08-18T15:48:32.512Z,18.70
2017-08-18T15:51:01.911Z,54.20
2017-08-18T15:53:31.136Z,40.83
2017-08-18T15:56:00.624Z,22.70
2017-08-18T15:58:30.211Z,18.23
2017-08-18T16:01:00.039Z,18.50
2017-08-18T16:03:29.291Z,24.47
2017-08-18T16:05:58.596Z,20.60
2017-08-18T16:08:28.071Z,21.53
2017-08-18T16:10:59.688Z,22.50
2017-08-18T16:13:29.665Z,14.47
2017-08-18T16:15:59.191Z,13.10
2017-08-18T16:18:30.558Z,19.03
2017-08-18T16:21:00.617Z,16.40
2017-08-18T16:23:30.334Z,36.07
2017-08-18T16:26:00.002Z,25.33
2017-08-18T16:28:30.519Z,23.87
2017-08-18T16:30:59.643Z,22.70
2017-08-18T16:33:28.749Z,106.03
2017-08-18T16:35:58.509Z,36.27
2017-08-18T16:38:28.991Z,19.07
2017-08-18T16:40:58.323Z,20.60
2017-08-18T16:43:29.024Z,24.10
2017-08-18T16:46:06.926Z,19.67
2017-08-18T16:48:49.692Z,17.10
2017-08-18T16:51:19.393Z,53.47
2017-08-18T16:53:52.347Z,59.47
2017-08-18T16:56:24.481Z,35.00
2017-08-18T16:58:58.572Z,26.17
2017-08-18T17:01:34.191Z,22.70
2017-08-18T17:04:04.128Z,22.27
2017-08-18T17:06:33.773Z,36.40
2017-08-18T17:09:03.320Z,20.80
2017-08-18T17:11:40.212Z,24.37
2017-08-18T17:14:10.027Z,28.40
2017-08-18T17:16:40.206Z,26.10
2017-08-18T17:19:10.922Z,35.33
2017-08-18T17:21:44.931Z,56.03
2017-08-18T17:24:20.207Z,141.57
2017-08-18T17:26:57.455Z,40.00
2017-08-18T17:29:29.650Z,64.47
2017-08-18T17:32:02.419Z,33.70
2017-08-18T17:34:35.047Z,69.40
2017-08-18T17:37:07.225Z,62.17
2017-08-18T17:39:40.088Z,45.00
2017-08-18T17:42:13.917Z,46.73
2017-08-18T17:44:46.071Z,49.27
2017-08-18T17:47:18.827Z,79.87
2017-08-18T17:49:51.019Z,40.37
2017-08-18T17:52:23.011Z,71.93
2017-08-18T17:55:00.216Z,32.87
2017-08-18T17:57:33.198Z,111.00
2017-08-18T18:00:04.765Z,48.03
2017-08-18T18:02:37.947Z,75.67
2017-08-18T18:05:09.681Z,34.83
2017-08-18T18:07:56.665Z,31.33
2017-08-18T18:10:30.373Z,42.30
2017-08-18T18:13:06.977Z,45.93
2017-08-18T18:15:39.027Z,72.33
2017-08-18T18:18:11.630Z,172.30
2017-08-18T18:20:42.335Z,91.37
2017-08-18T18:23:17.080Z,194.70
2017-08-18T18:25:49.251Z,96.67
2017-08-18T18:28:21.646Z,96.13
2017-08-18T18:30:53.299Z,96.93
2017-08-18T18:33:25.358Z,82.37
2017-08-18T18:36:05.049Z,52.83
2017-08-18T18:38:38.385Z,31.53
2017-08-18T18:41:10.852Z,39.43
2017-08-18T18:43:43.189Z,66.80
2017-08-18T18:46:18.301Z,43.17
2017-08-18T18:49:01.515Z,41.27
2017-08-18T18:51:36.286Z,46.37
2017-08-18T18:54:10.039Z,63.93
2017-08-18T18:56:46.209Z,21.00
2017-08-18T18:59:18.879Z,44.50
2017-08-18T19:01:51.083Z,48.07
2017-08-18T19:04:26.219Z,82.13
2017-08-18T19:06:58.395Z,33.93
2017-08-18T19:09:30.580Z,45.90
2017-08-18T19:12:41.732Z,30.90
2017-08-18T19:15:18.445Z,40.53
2017-08-18T19:17:55.408Z,68.43
2017-08-18T19:20:31.729Z,49.90
2017-08-18T19:23:06.266Z,42.17
2017-08-18T19:25:41.290Z,82.80
2017-08-18T19:28:14.192Z,181.23
2017-08-18T19:31:02.516Z,234.30
2017-08-18T19:33:37.100Z,107.63
2017-08-18T19:36:12.624Z,73.23
2017-08-18T19:38:46.530Z,47.90
2017-08-18T19:41:21.059Z,61.23
2017-08-18T19:43:55.015Z,56.23
2017-08-18T19:49:25.108Z,84.37
2017-08-18T19:52:05.808Z,88.73
2017-08-18T19:54:42.202Z,39.70
2017-08-18T19:57:14.988Z,72.50
2017-08-18T20:03:17.969Z,38.20
2017-08-18T20:05:49.099Z,33.40
2017-08-18T20:08:19.871Z,95.03
2017-08-18T20:10:56.383Z,58.07
2017-08-18T20:13:33.053Z,74.70
2017-08-18T20:18:42.723Z,60.90
2017-08-18T20:21:22.165Z,120.20
2017-08-18T20:26:40.732Z,97.70
2017-08-18T20:29:19.408Z,65.63
2017-08-18T20:31:56.056Z,218.40
2017-08-18T20:34:32.210Z,218.33
2017-08-18T20:37:06.471Z,129.33
2017-08-18T20:39:40.204Z,114.60
2017-08-18T20:42:10.385Z,115.20
2017-08-18T20:44:56.074Z,193.40
2017-08-18T20:47:29.452Z,65.37
2017-08-18T20:50:01.986Z,31.20
2017-08-18T20:52:33.866Z,68.57
2017-08-18T20:55:06.191Z,101.93
2017-08-18T20:57:37.525Z,123.13
2017-08-18T21:00:10.409Z,90.80
2017-08-18T21:02:40.475Z,96.40
2017-08-18T21:08:37.016Z,55.60
2017-08-18T21:11:08.108Z,138.93
2017-08-18T21:13:41.112Z,176.33
2017-08-18T21:16:12.688Z,133.90
2017-08-18T21:18:47.502Z,46.63
2017-08-18T21:21:47.782Z,51.63
2017-08-18T21:24:21.143Z,81.27
2017-08-18T21:26:55.339Z,87.53
2017-08-18T21:29:26.985Z,135.33
2017-08-18T21:40:08.163Z,65.13
2017-08-18T21:42:37.487Z,46.83
2017-08-18T21:45:07.002Z,131.40
2017-08-18T21:47:38.572Z,61.40
2017-08-18T21:50:13.403Z,152.80
2017-08-18T21:52:52.795Z,175.50
2017-08-18T21:55:24.440Z,49.70
2017-08-18T21:57:53.976Z,50.03
2017-08-18T22:00:24.431Z,59.60
2017-08-18T22:02:54.678Z,77.47
2017-08-18T22:05:24.098Z,77.40
2017-08-18T22:07:53.984Z,89.73
2017-08-18T22:10:25.423Z,101.90
2017-08-18T22:12:55.225Z,84.83
2017-08-18T22:15:24.732Z,97.67
2017-08-18T22:17:54.359Z,94.30
2017-08-18T22:20:24.389Z,69.93
2017-08-18T22:22:53.692Z,38.50
2017-08-18T22:25:23.288Z,92.53
2017-08-18T22:27:53.452Z,118.97
2017-08-18T22:30:22.611Z,84.67
2017-08-18T22:33:17.686Z,89.47
2017-08-18T22:35:46.960Z,49.13
2017-08-18T22:38:18.422Z,98.27
2017-08-18T22:40:48.012Z,52.03
2017-08-18T22:43:17.838Z,64.80
2017-08-18T22:45:47.010Z,85.73
2017-08-18T22:48:16.826Z,63.93
2017-08-18T22:50:46.321Z,64.17
2017-08-18T22:53:15.867Z,56.07
2017-08-18T22:55:45.954Z,155.53
2017-08-18T22:58:17.795Z,129.23
2017-08-18T23:00:47.284Z,131.77
2017-08-18T23:03:16.357Z,84.17
2017-08-18T23:05:45.642Z,115.50
2017-08-18T23:08:19.777Z,145.23
2017-08-18T23:13:48.784Z,80.30
2017-08-18T23:16:18.128Z,58.50
2017-08-18T23:18:48.090Z,113.87
2017-08-18T23:21:17.520Z,109.20
2017-08-18T23:23:49.605Z,81.13
2017-08-18T23:26:21.190Z,72.17
2017-08-18T23:28:50.782Z,126.07
2017-08-18T23:31:19.882Z,116.70
2017-08-18T23:33:49.199Z,128.80
2017-08-18T23:36:18.919Z,106.97
2017-08-18T23:38:50.658Z,152.73
2017-08-18T23:41:40.318Z,70.17
2017-08-18T23:44:14.590Z,96.40
2017-08-18T23:46:44.515Z,98.80
2017-08-18T23:49:15.355Z,121.70
2017-08-18T23:51:44.526Z,115.73
2017-08-18T23:54:13.714Z,73.67
2017-08-18T23:56:43.707Z,103.87
2017-08-18T23:59:12.857Z,88.13
